sensor_id;sensor_type;location;lat;lon;timestamp;temperature;humidity
67586;SHT31;55785;47.946;20.540;2024-01-15T00:02:15;-4.36;84.32
67586;SHT31;55785;47.946;20.540;2024-01-15T00:04:41;-4.30;84.38
67586;SHT31;55785;47.946;20.540;2024-01-15T00:07:07;-4.26;85.04
67586;SHT31;55785;47.946;20.540;2024-01-15T00:09:35;-4.24;85.45
67586;SHT31;55785;47.946;20.540;2024-01-15T00:12:01;-4.27;85.05
67586;SHT31;55785;47.946;20.540;2024-01-15T00:14:27;-4.36;84.73
67586;SHT31;55785;47.946;20.540;2024-01-15T00:16:53;-4.34;84.87
67586;SHT31;55785;47.946;20.540;2024-01-15T00:19:18;-4.33;84.45
67586;SHT31;55785;47.946;20.540;2024-01-15T00:21:44;-4.47;85.40
67586;SHT31;55785;47.946;20.540;2024-01-15T00:24:10;-4.62;85.22
67586;SHT31;55785;47.946;20.540;2024-01-15T00:26:35;-4.85;84.93
67586;SHT31;55785;47.946;20.540;2024-01-15T00:29:00;-4.95;85.54
67586;SHT31;55785;47.946;20.540;2024-01-15T00:31:26;-5.00;86.14
67586;SHT31;55785;47.946;20.540;2024-01-15T00:33:51;-4.89;86.66
67586;SHT31;55785;47.946;20.540;2024-01-15T00:36:16;-4.91;87.04
67586;SHT31;55785;47.946;20.540;2024-01-15T00:38:42;-4.92;87.19
67586;SHT31;55785;47.946;20.540;2024-01-15T00:41:07;-4.93;87.06
67586;SHT31;55785;47.946;20.540;2024-01-15T00:43:33;-4.91;86.67
67586;SHT31;55785;47.946;20.540;2024-01-15T00:46:01;-4.95;86.37
67586;SHT31;55785;47.946;20.540;2024-01-15T00:48:26;-4.89;86.27
67586;SHT31;55785;47.946;20.540;2024-01-15T00:50:51;-4.91;86.81
67586;SHT31;55785;47.946;20.540;2024-01-15T00:53:17;-4.85;87.10
67586;SHT31;55785;47.946;20.540;2024-01-15T00:55:42;-5.02;85.97
67586;SHT31;55785;47.946;20.540;2024-01-15T00:58:07;-5.05;85.66
67586;SHT31;55785;47.946;20.540;2024-01-15T01:00:33;-4.99;86.71
67586;SHT31;55785;47.946;20.540;2024-01-15T01:02:58;-4.96;86.76
67586;SHT31;55785;47.946;20.540;2024-01-15T01:05:23;-5.06;86.53
67586;SHT31;55785;47.946;20.540;2024-01-15T01:07:49;-5.28;85.69
67586;SHT31;55785;47.946;20.540;2024-01-15T01:10:14;-5.27;85.71
67586;SHT31;55785;47.946;20.540;2024-01-15T01:12:39;-5.28;86.57
67586;SHT31;55785;47.946;20.540;2024-01-15T01:15:05;-5.40;87.10
67586;SHT31;55785;47.946;20.540;2024-01-15T01:17:30;-5.57;87.18
67586;SHT31;55785;47.946;20.540;2024-01-15T01:19:56;-5.50;86.52
67586;SHT31;55785;47.946;20.540;2024-01-15T01:22:21;-5.44;87.11
67586;SHT31;55785;47.946;20.540;2024-01-15T01:24:46;-5.44;87.87
67586;SHT31;55785;47.946;20.540;2024-01-15T01:27:12;-5.44;87.77
67586;SHT31;55785;47.946;20.540;2024-01-15T01:29:37;-5.50;88.12
67586;SHT31;55785;47.946;20.540;2024-01-15T01:32:03;-5.54;88.45
67586;SHT31;55785;47.946;20.540;2024-01-15T01:34:28;-5.54;88.70
67586;SHT31;55785;47.946;20.540;2024-01-15T01:36:53;-5.38;88.88
67586;SHT31;55785;47.946;20.540;2024-01-15T01:39:19;-5.37;89.35
67586;SHT31;55785;47.946;20.540;2024-01-15T01:41:44;-5.36;89.48
67586;SHT31;55785;47.946;20.540;2024-01-15T01:44:09;-5.41;89.80
67586;SHT31;55785;47.946;20.540;2024-01-15T01:46:36;-5.33;89.91
67586;SHT31;55785;47.946;20.540;2024-01-15T01:49:01;-5.26;89.82
67586;SHT31;55785;47.946;20.540;2024-01-15T01:51:27;-5.16;89.88
67586;SHT31;55785;47.946;20.540;2024-01-15T01:53:52;-5.15;90.08
67586;SHT31;55785;47.946;20.540;2024-01-15T01:56:18;-5.03;90.15
67586;SHT31;55785;47.946;20.540;2024-01-15T01:58:44;-4.89;89.97
67586;SHT31;55785;47.946;20.540;2024-01-15T02:01:11;-4.84;89.79
67586;SHT31;55785;47.946;20.540;2024-01-15T02:03:38;-4.82;90.05
67586;SHT31;55785;47.946;20.540;2024-01-15T02:06:05;-4.76;90.28
67586;SHT31;55785;47.946;20.540;2024-01-15T02:08:30;-4.66;90.54
67586;SHT31;55785;47.946;20.540;2024-01-15T02:10:56;-4.62;90.87
67586;SHT31;55785;47.946;20.540;2024-01-15T02:13:21;-4.54;91.06
67586;SHT31;55785;47.946;20.540;2024-01-15T02:15:46;-4.47;91.08
67586;SHT31;55785;47.946;20.540;2024-01-15T02:18:12;-4.37;91.09
67586;SHT31;55785;47.946;20.540;2024-01-15T02:20:37;-4.27;90.79
67586;SHT31;55785;47.946;20.540;2024-01-15T02:23:13;-3.99;90.47
67586;SHT31;55785;47.946;20.540;2024-01-15T02:25:43;-3.92;89.93
67586;SHT31;55785;47.946;20.540;2024-01-15T02:28:11;-3.92;89.61
67586;SHT31;55785;47.946;20.540;2024-01-15T02:30:40;-3.95;89.68
67586;SHT31;55785;47.946;20.540;2024-01-15T02:33:07;-4.00;89.69
67586;SHT31;55785;47.946;20.540;2024-01-15T02:35:32;-4.03;90.15
67586;SHT31;55785;47.946;20.540;2024-01-15T02:37:58;-3.99;90.42
67586;SHT31;55785;47.946;20.540;2024-01-15T02:40:24;-3.92;90.36
67586;SHT31;55785;47.946;20.540;2024-01-15T02:42:49;-3.89;90.41
67586;SHT31;55785;47.946;20.540;2024-01-15T02:45:14;-3.83;90.40
67586;SHT31;55785;47.946;20.540;2024-01-15T02:47:40;-3.82;90.39
67586;SHT31;55785;47.946;20.540;2024-01-15T02:50:05;-3.79;90.46
67586;SHT31;55785;47.946;20.540;2024-01-15T02:52:31;-3.75;90.50
67586;SHT31;55785;47.946;20.540;2024-01-15T02:54:56;-3.71;90.29
67586;SHT31;55785;47.946;20.540;2024-01-15T02:57:22;-3.71;90.26
67586;SHT31;55785;47.946;20.540;2024-01-15T02:59:47;-3.76;90.42
67586;SHT31;55785;47.946;20.540;2024-01-15T03:02:12;-3.68;90.55
67586;SHT31;55785;47.946;20.540;2024-01-15T03:04:43;-3.71;90.54
67586;SHT31;55785;47.946;20.540;2024-01-15T03:07:08;-3.72;90.62
67586;SHT31;55785;47.946;20.540;2024-01-15T03:09:33;-3.65;90.66
67586;SHT31;55785;47.946;20.540;2024-01-15T03:11:59;-3.62;90.72
67586;SHT31;55785;47.946;20.540;2024-01-15T03:14:24;-3.58;90.72
67586;SHT31;55785;47.946;20.540;2024-01-15T03:16:49;-3.54;90.56
67586;SHT31;55785;47.946;20.540;2024-01-15T03:19:15;-3.54;90.57
67586;SHT31;55785;47.946;20.540;2024-01-15T03:21:40;-3.55;90.58
67586;SHT31;55785;47.946;20.540;2024-01-15T03:24:05;-3.43;90.50
67586;SHT31;55785;47.946;20.540;2024-01-15T03:26:31;-3.37;90.17
67586;SHT31;55785;47.946;20.540;2024-01-15T03:28:56;-3.30;90.05
67586;SHT31;55785;47.946;20.540;2024-01-15T03:31:21;-3.23;89.77
67586;SHT31;55785;47.946;20.540;2024-01-15T03:33:47;-3.31;89.67
67586;SHT31;55785;47.946;20.540;2024-01-15T03:36:12;-3.20;89.58
67586;SHT31;55785;47.946;20.540;2024-01-15T03:38:40;-3.09;89.15
67586;SHT31;55785;47.946;20.540;2024-01-15T03:41:06;-3.07;89.16
67586;SHT31;55785;47.946;20.540;2024-01-15T03:43:31;-3.06;89.15
67586;SHT31;55785;47.946;20.540;2024-01-15T03:45:57;-3.04;89.11
67586;SHT31;55785;47.946;20.540;2024-01-15T03:48:22;-3.07;89.23
67586;SHT31;55785;47.946;20.540;2024-01-15T03:50:47;-3.14;89.63
67586;SHT31;55785;47.946;20.540;2024-01-15T03:53:13;-3.06;89.63
67586;SHT31;55785;47.946;20.540;2024-01-15T03:55:38;-3.04;89.61
67586;SHT31;55785;47.946;20.540;2024-01-15T03:58:03;-3.07;89.67
67586;SHT31;55785;47.946;20.540;2024-01-15T04:00:29;-2.96;89.07
67586;SHT31;55785;47.946;20.540;2024-01-15T04:02:54;-2.89;88.67
67586;SHT31;55785;47.946;20.540;2024-01-15T04:05:20;-2.86;88.36
67586;SHT31;55785;47.946;20.540;2024-01-15T04:07:45;-2.85;88.26
67586;SHT31;55785;47.946;20.540;2024-01-15T04:10:10;-2.90;88.02
67586;SHT31;55785;47.946;20.540;2024-01-15T04:12:36;-3.00;88.04
67586;SHT31;55785;47.946;20.540;2024-01-15T04:15:01;-3.09;88.13
67586;SHT31;55785;47.946;20.540;2024-01-15T04:17:27;-3.24;88.45
67586;SHT31;55785;47.946;20.540;2024-01-15T04:19:52;-3.28;88.71
67586;SHT31;55785;47.946;20.540;2024-01-15T04:22:17;-3.33;89.00
67586;SHT31;55785;47.946;20.540;2024-01-15T04:24:43;-3.30;89.25
67586;SHT31;55785;47.946;20.540;2024-01-15T04:27:08;-3.31;89.51
67586;SHT31;55785;47.946;20.540;2024-01-15T04:29:33;-3.30;89.57
67586;SHT31;55785;47.946;20.540;2024-01-15T04:31:59;-3.33;89.66
67586;SHT31;55785;47.946;20.540;2024-01-15T04:34:24;-3.30;89.79
67586;SHT31;55785;47.946;20.540;2024-01-15T04:36:49;-3.30;89.76
67586;SHT31;55785;47.946;20.540;2024-01-15T04:39:15;-3.33;89.88
67586;SHT31;55785;47.946;20.540;2024-01-15T04:41:40;-3.23;89.82
67586;SHT31;55785;47.946;20.540;2024-01-15T04:44:05;-3.21;89.57
67586;SHT31;55785;47.946;20.540;2024-01-15T04:46:31;-3.21;89.64
67586;SHT31;55785;47.946;20.540;2024-01-15T04:48:56;-3.20;89.51
67586;SHT31;55785;47.946;20.540;2024-01-15T04:51:21;-3.34;89.57
67586;SHT31;55785;47.946;20.540;2024-01-15T04:53:47;-3.36;89.59
67586;SHT31;55785;47.946;20.540;2024-01-15T04:56:12;-3.41;89.68
67586;SHT31;55785;47.946;20.540;2024-01-15T04:58:37;-3.54;89.86
67586;SHT31;55785;47.946;20.540;2024-01-15T05:01:03;-3.54;89.96
67586;SHT31;55785;47.946;20.540;2024-01-15T05:03:28;-3.66;90.06
67586;SHT31;55785;47.946;20.540;2024-01-15T05:05:54;-3.65;89.97
67586;SHT31;55785;47.946;20.540;2024-01-15T05:08:19;-3.75;90.00
67586;SHT31;55785;47.946;20.540;2024-01-15T05:10:45;-3.79;90.19
67586;SHT31;55785;47.946;20.540;2024-01-15T05:13:10;-3.83;90.23
67586;SHT31;55785;47.946;20.540;2024-01-15T05:15:35;-3.82;90.19
67586;SHT31;55785;47.946;20.540;2024-01-15T05:18:01;-3.79;90.21
67586;SHT31;55785;47.946;20.540;2024-01-15T05:20:26;-3.79;90.31
67586;SHT31;55785;47.946;20.540;2024-01-15T05:22:51;-3.72;89.76
67586;SHT31;55785;47.946;20.540;2024-01-15T05:25:17;-3.74;89.60
67586;SHT31;55785;47.946;20.540;2024-01-15T05:27:42;-3.76;89.86
67586;SHT31;55785;47.946;20.540;2024-01-15T05:30:08;-3.74;89.75
67586;SHT31;55785;47.946;20.540;2024-01-15T05:32:33;-3.76;89.39
67586;SHT31;55785;47.946;20.540;2024-01-15T05:34:58;-3.76;88.75
67586;SHT31;55785;47.946;20.540;2024-01-15T05:37:24;-3.75;88.67
67586;SHT31;55785;47.946;20.540;2024-01-15T05:39:49;-3.76;88.57
67586;SHT31;55785;47.946;20.540;2024-01-15T05:42:14;-3.85;88.73
67586;SHT31;55785;47.946;20.540;2024-01-15T05:44:40;-3.95;88.72
67586;SHT31;55785;47.946;20.540;2024-01-15T05:47:05;-3.99;88.00
67586;SHT31;55785;47.946;20.540;2024-01-15T05:49:30;-4.21;87.46
67586;SHT31;55785;47.946;20.540;2024-01-15T05:51:56;-4.40;86.84
67586;SHT31;55785;47.946;20.540;2024-01-15T05:54:21;-4.57;87.35
67586;SHT31;55785;47.946;20.540;2024-01-15T05:56:46;-4.65;88.42
67586;SHT31;55785;47.946;20.540;2024-01-15T05:59:12;-4.66;89.05
67586;SHT31;55785;47.946;20.540;2024-01-15T06:01:37;-4.57;89.13
67586;SHT31;55785;47.946;20.540;2024-01-15T06:04:03;-4.57;89.17
67586;SHT31;55785;47.946;20.540;2024-01-15T06:06:28;-4.53;89.34
67586;SHT31;55785;47.946;20.540;2024-01-15T06:08:53;-4.53;89.08
67586;SHT31;55785;47.946;20.540;2024-01-15T06:11:19;-4.65;87.08
67586;SHT31;55785;47.946;20.540;2024-01-15T06:13:44;-4.79;87.07
67586;SHT31;55785;47.946;20.540;2024-01-15T06:16:14;-4.86;87.35
67586;SHT31;55785;47.946;20.540;2024-01-15T06:18:39;-4.91;87.98
67586;SHT31;55785;47.946;20.540;2024-01-15T06:21:05;-5.20;88.34
67586;SHT31;55785;47.946;20.540;2024-01-15T06:23:30;-5.30;88.22
67586;SHT31;55785;47.946;20.540;2024-01-15T06:25:55;-5.22;88.36
67586;SHT31;55785;47.946;20.540;2024-01-15T06:28:21;-5.27;88.77
67586;SHT31;55785;47.946;20.540;2024-01-15T06:30:46;-5.47;88.82
67586;SHT31;55785;47.946;20.540;2024-01-15T06:33:11;-5.46;89.16
67586;SHT31;55785;47.946;20.540;2024-01-15T06:35:37;-5.31;89.46
67586;SHT31;55785;47.946;20.540;2024-01-15T06:38:02;-5.23;89.75
67586;SHT31;55785;47.946;20.540;2024-01-15T06:40:27;-5.28;90.05
67586;SHT31;55785;47.946;20.540;2024-01-15T06:42:55;-5.22;90.24
67586;SHT31;55785;47.946;20.540;2024-01-15T06:45:20;-5.13;90.20
67586;SHT31;55785;47.946;20.540;2024-01-15T06:47:46;-5.06;90.28
67586;SHT31;55785;47.946;20.540;2024-01-15T06:50:11;-5.06;90.25
67586;SHT31;55785;47.946;20.540;2024-01-15T06:52:36;-5.02;88.92
67586;SHT31;55785;47.946;20.540;2024-01-15T06:55:02;-5.02;89.04
67586;SHT31;55785;47.946;20.540;2024-01-15T06:57:27;-4.91;90.59
67586;SHT31;55785;47.946;20.540;2024-01-15T06:59:53;-4.72;91.22
67586;SHT31;55785;47.946;20.540;2024-01-15T07:02:18;-4.31;93.15
67586;SHT31;55785;47.946;20.540;2024-01-15T07:04:43;-4.00;93.09
67586;SHT31;55785;47.946;20.540;2024-01-15T07:07:09;-3.82;92.89
67586;SHT31;55785;47.946;20.540;2024-01-15T07:09:34;-3.64;93.10
67586;SHT31;55785;47.946;20.540;2024-01-15T07:11:59;-3.52;92.94
67586;SHT31;55785;47.946;20.540;2024-01-15T07:14:25;-3.41;92.94
67586;SHT31;55785;47.946;20.540;2024-01-15T07:16:50;-3.33;92.73
67586;SHT31;55785;47.946;20.540;2024-01-15T07:19:15;-3.30;92.62
67586;SHT31;55785;47.946;20.540;2024-01-15T07:21:41;-3.43;91.56
67586;SHT31;55785;47.946;20.540;2024-01-15T07:24:06;-3.55;90.45
67586;SHT31;55785;47.946;20.540;2024-01-15T07:26:31;-3.65;89.87
67586;SHT31;55785;47.946;20.540;2024-01-15T07:28:57;-3.64;89.79
67586;SHT31;55785;47.946;20.540;2024-01-15T07:31:22;-3.66;89.97
67586;SHT31;55785;47.946;20.540;2024-01-15T07:33:47;-3.71;90.38
67586;SHT31;55785;47.946;20.540;2024-01-15T07:36:13;-3.59;91.51
67586;SHT31;55785;47.946;20.540;2024-01-15T07:38:38;-3.47;92.10
67586;SHT31;55785;47.946;20.540;2024-01-15T07:41:04;-3.40;92.16
67586;SHT31;55785;47.946;20.540;2024-01-15T07:43:29;-3.36;92.21
67586;SHT31;55785;47.946;20.540;2024-01-15T07:45:55;-3.31;92.41
67586;SHT31;55785;47.946;20.540;2024-01-15T07:48:20;-3.34;92.34
67586;SHT31;55785;47.946;20.540;2024-01-15T07:50:45;-3.36;92.45
67586;SHT31;55785;47.946;20.540;2024-01-15T07:53:11;-3.34;92.50
67586;SHT31;55785;47.946;20.540;2024-01-15T07:55:36;-3.30;92.46
67586;SHT31;55785;47.946;20.540;2024-01-15T07:58:02;-3.20;92.64
67586;SHT31;55785;47.946;20.540;2024-01-15T08:00:27;-3.17;92.77
67586;SHT31;55785;47.946;20.540;2024-01-15T08:02:52;-3.16;92.73
67586;SHT31;55785;47.946;20.540;2024-01-15T08:05:18;-3.04;92.79
67586;SHT31;55785;47.946;20.540;2024-01-15T08:07:43;-2.99;92.88
67586;SHT31;55785;47.946;20.540;2024-01-15T08:10:08;-2.88;92.86
67586;SHT31;55785;47.946;20.540;2024-01-15T08:12:34;-2.85;92.91
67586;SHT31;55785;47.946;20.540;2024-01-15T08:14:59;-2.73;92.82
67586;SHT31;55785;47.946;20.540;2024-01-15T08:17:25;-2.69;92.83
67586;SHT31;55785;47.946;20.540;2024-01-15T08:19:50;-2.64;92.72
67586;SHT31;55785;47.946;20.540;2024-01-15T08:22:15;-2.59;92.63
67586;SHT31;55785;47.946;20.540;2024-01-15T08:24:41;-2.59;92.58
67586;SHT31;55785;47.946;20.540;2024-01-15T08:27:06;-2.52;92.47
67586;SHT31;55785;47.946;20.540;2024-01-15T08:29:31;-2.47;92.39
67586;SHT31;55785;47.946;20.540;2024-01-15T08:31:57;-2.37;92.18
67586;SHT31;55785;47.946;20.540;2024-01-15T08:34:22;-2.24;91.90
67586;SHT31;55785;47.946;20.540;2024-01-15T08:36:47;-2.09;91.81
67586;SHT31;55785;47.946;20.540;2024-01-15T08:39:13;-1.94;91.21
67586;SHT31;55785;47.946;20.540;2024-01-15T08:41:38;-1.90;90.50
67586;SHT31;55785;47.946;20.540;2024-01-15T08:44:03;-1.68;90.36
67586;SHT31;55785;47.946;20.540;2024-01-15T08:46:29;-1.41;87.06
67586;SHT31;55785;47.946;20.540;2024-01-15T08:48:54;-0.74;82.46
67586;SHT31;55785;47.946;20.540;2024-01-15T08:51:19;-0.28;79.46
67586;SHT31;55785;47.946;20.540;2024-01-15T08:53:45;0.09;77.98
67586;SHT31;55785;47.946;20.540;2024-01-15T08:56:10;0.31;76.64
67586;SHT31;55785;47.946;20.540;2024-01-15T08:58:35;0.51;75.04
67586;SHT31;55785;47.946;20.540;2024-01-15T09:01:01;0.61;73.66
67586;SHT31;55785;47.946;20.540;2024-01-15T09:03:26;0.69;73.06
67586;SHT31;55785;47.946;20.540;2024-01-15T09:05:51;0.82;72.63
67586;SHT31;55785;47.946;20.540;2024-01-15T09:08:17;0.95;72.87
67586;SHT31;55785;47.946;20.540;2024-01-15T09:10:42;0.84;71.88
67586;SHT31;55785;47.946;20.540;2024-01-15T09:13:07;0.81;71.79
67586;SHT31;55785;47.946;20.540;2024-01-15T09:15:33;0.86;71.64
67586;SHT31;55785;47.946;20.540;2024-01-15T09:17:58;0.89;70.80
67586;SHT31;55785;47.946;20.540;2024-01-15T09:20:24;0.95;71.25
67586;SHT31;55785;47.946;20.540;2024-01-15T09:22:49;0.97;71.10
67586;SHT31;55785;47.946;20.540;2024-01-15T09:25:14;0.99;70.39
67586;SHT31;55785;47.946;20.540;2024-01-15T09:27:40;1.06;70.15
67586;SHT31;55785;47.946;20.540;2024-01-15T09:30:06;1.16;70.19
67586;SHT31;55785;47.946;20.540;2024-01-15T09:32:31;1.22;69.55
67586;SHT31;55785;47.946;20.540;2024-01-15T09:34:56;1.19;69.14
67586;SHT31;55785;47.946;20.540;2024-01-15T09:37:22;1.22;68.76
67586;SHT31;55785;47.946;20.540;2024-01-15T09:39:47;1.24;68.93
67586;SHT31;55785;47.946;20.540;2024-01-15T09:42:12;1.29;68.85
67586;SHT31;55785;47.946;20.540;2024-01-15T09:44:38;1.34;68.34
67586;SHT31;55785;47.946;20.540;2024-01-15T09:47:04;1.47;68.22
67586;SHT31;55785;47.946;20.540;2024-01-15T09:49:30;1.50;67.59
67586;SHT31;55785;47.946;20.540;2024-01-15T09:51:57;1.51;66.99
67586;SHT31;55785;47.946;20.540;2024-01-15T09:54:23;1.51;66.88
67586;SHT31;55785;47.946;20.540;2024-01-15T09:56:48;1.58;67.41
67586;SHT31;55785;47.946;20.540;2024-01-15T09:59:15;1.74;67.08
67586;SHT31;55785;47.946;20.540;2024-01-15T10:01:41;1.81;65.67
67586;SHT31;55785;47.946;20.540;2024-01-15T10:04:07;1.82;66.33
67586;SHT31;55785;47.946;20.540;2024-01-15T10:06:33;1.94;66.35
67586;SHT31;55785;47.946;20.540;2024-01-15T10:08:59;2.09;65.98
67586;SHT31;55785;47.946;20.540;2024-01-15T10:11:25;2.32;64.98
67586;SHT31;55785;47.946;20.540;2024-01-15T10:13:51;2.44;64.49
67586;SHT31;55785;47.946;20.540;2024-01-15T10:16:16;2.57;63.94
67586;SHT31;55785;47.946;20.540;2024-01-15T10:18:41;2.77;64.14
67586;SHT31;55785;47.946;20.540;2024-01-15T10:21:07;2.87;62.48
67586;SHT31;55785;47.946;20.540;2024-01-15T10:23:32;2.97;62.28
67586;SHT31;55785;47.946;20.540;2024-01-15T10:25:57;3.07;61.48
67586;SHT31;55785;47.946;20.540;2024-01-15T10:28:26;3.13;60.68
67586;SHT31;55785;47.946;20.540;2024-01-15T10:30:53;3.12;60.96
67586;SHT31;55785;47.946;20.540;2024-01-15T10:33:22;3.20;61.10
67586;SHT31;55785;47.946;20.540;2024-01-15T10:35:47;3.13;60.68
67586;SHT31;55785;47.946;20.540;2024-01-15T10:38:13;3.13;60.73
67586;SHT31;55785;47.946;20.540;2024-01-15T10:40:38;3.23;60.39
67586;SHT31;55785;47.946;20.540;2024-01-15T10:43:04;3.33;59.96
67586;SHT31;55785;47.946;20.540;2024-01-15T10:45:29;3.43;59.01
67586;SHT31;55785;47.946;20.540;2024-01-15T10:47:54;3.56;58.94
67586;SHT31;55785;47.946;20.540;2024-01-15T10:50:20;3.63;58.66
67586;SHT31;55785;47.946;20.540;2024-01-15T10:52:46;3.69;58.24
67586;SHT31;55785;47.946;20.540;2024-01-15T10:55:12;3.71;57.88
67586;SHT31;55785;47.946;20.540;2024-01-15T10:57:37;3.73;57.22
67586;SHT31;55785;47.946;20.540;2024-01-15T11:00:03;3.77;57.73
67586;SHT31;55785;47.946;20.540;2024-01-15T11:02:29;3.91;56.79
67586;SHT31;55785;47.946;20.540;2024-01-15T11:04:55;4.04;56.49
67586;SHT31;55785;47.946;20.540;2024-01-15T11:07:22;4.19;56.12
67586;SHT31;55785;47.946;20.540;2024-01-15T11:09:49;4.17;55.33
67586;SHT31;55785;47.946;20.540;2024-01-15T11:12:16;4.28;55.78
67586;SHT31;55785;47.946;20.540;2024-01-15T11:14:49;4.44;55.32
67586;SHT31;55785;47.946;20.540;2024-01-15T11:17:17;4.63;54.57
67586;SHT31;55785;47.946;20.540;2024-01-15T11:19:45;4.86;54.17
67586;SHT31;55785;47.946;20.540;2024-01-15T11:24:56;5.17;52.63
67586;SHT31;55785;47.946;20.540;2024-01-15T11:27:41;5.62;51.06
67586;SHT31;55785;47.946;20.540;2024-01-15T11:30:11;6.00;50.26
67586;SHT31;55785;47.946;20.540;2024-01-15T11:32:37;5.79;50.77
67586;SHT31;55785;47.946;20.540;2024-01-15T11:35:03;5.76;51.45
67586;SHT31;55785;47.946;20.540;2024-01-15T11:40:38;5.41;52.63
67586;SHT31;55785;47.946;20.540;2024-01-15T11:43:05;5.10;52.59
67586;SHT31;55785;47.946;20.540;2024-01-15T11:45:31;5.10;52.86
67586;SHT31;55785;47.946;20.540;2024-01-15T11:48:15;5.01;53.19
67586;SHT31;55785;47.946;20.540;2024-01-15T11:50:45;5.01;52.90
67586;SHT31;55785;47.946;20.540;2024-01-15T11:53:36;4.91;53.38
67586;SHT31;55785;47.946;20.540;2024-01-15T11:56:03;5.48;52.41
67586;SHT31;55785;47.946;20.540;2024-01-15T11:58:29;6.13;51.05
67586;SHT31;55785;47.946;20.540;2024-01-15T12:00:54;6.41;50.42
67586;SHT31;55785;47.946;20.540;2024-01-15T12:03:21;6.24;49.49
67586;SHT31;55785;47.946;20.540;2024-01-15T12:05:46;5.96;50.30
67586;SHT31;55785;47.946;20.540;2024-01-15T12:08:12;5.63;51.54
67586;SHT31;55785;47.946;20.540;2024-01-15T12:10:41;5.41;52.04
67586;SHT31;55785;47.946;20.540;2024-01-15T12:15:36;5.13;53.13
67586;SHT31;55785;47.946;20.540;2024-01-15T12:18:02;5.21;52.79
67586;SHT31;55785;47.946;20.540;2024-01-15T12:20:29;5.17;52.49
67586;SHT31;55785;47.946;20.540;2024-01-15T12:22:55;5.00;53.16
67586;SHT31;55785;47.946;20.540;2024-01-15T12:25:21;5.18;52.98
67586;SHT31;55785;47.946;20.540;2024-01-15T12:27:47;5.27;52.13
67586;SHT31;55785;47.946;20.540;2024-01-15T12:30:13;5.41;51.60
67586;SHT31;55785;47.946;20.540;2024-01-15T12:32:42;5.44;51.98
67586;SHT31;55785;47.946;20.540;2024-01-15T12:35:09;5.56;51.74
67586;SHT31;55785;47.946;20.540;2024-01-15T12:37:36;5.46;51.61
67586;SHT31;55785;47.946;20.540;2024-01-15T12:40:02;5.44;51.87
67586;SHT31;55785;47.946;20.540;2024-01-15T12:42:27;5.05;52.28
67586;SHT31;55785;47.946;20.540;2024-01-15T12:44:56;4.81;51.96
67586;SHT31;55785;47.946;20.540;2024-01-15T12:47:21;4.60;51.46
67586;SHT31;55785;47.946;20.540;2024-01-15T12:49:47;4.45;52.02
67586;SHT31;55785;47.946;20.540;2024-01-15T12:52:12;4.45;52.11
67586;SHT31;55785;47.946;20.540;2024-01-15T12:54:38;4.48;51.66
67586;SHT31;55785;47.946;20.540;2024-01-15T12:57:03;4.55;51.97
67586;SHT31;55785;47.946;20.540;2024-01-15T12:59:29;4.62;51.66
67586;SHT31;55785;47.946;20.540;2024-01-15T13:01:54;4.60;51.54
67586;SHT31;55785;47.946;20.540;2024-01-15T13:04:23;4.60;51.66
67586;SHT31;55785;47.946;20.540;2024-01-15T13:06:49;4.55;51.76
67586;SHT31;55785;47.946;20.540;2024-01-15T13:09:15;4.48;52.45
67586;SHT31;55785;47.946;20.540;2024-01-15T13:11:40;4.50;52.20
67586;SHT31;55785;47.946;20.540;2024-01-15T13:14:06;4.38;52.39
67586;SHT31;55785;47.946;20.540;2024-01-15T13:16:31;4.45;53.18
67586;SHT31;55785;47.946;20.540;2024-01-15T13:18:57;4.46;52.28
67586;SHT31;55785;47.946;20.540;2024-01-15T13:21:22;4.45;52.63
67586;SHT31;55785;47.946;20.540;2024-01-15T13:23:48;4.39;52.86
67586;SHT31;55785;47.946;20.540;2024-01-15T13:26:13;4.42;53.22
67586;SHT31;55785;47.946;20.540;2024-01-15T13:28:39;4.48;53.09
67586;SHT31;55785;47.946;20.540;2024-01-15T13:31:04;4.42;52.54
67586;SHT31;55785;47.946;20.540;2024-01-15T13:33:30;4.32;52.55
67586;SHT31;55785;47.946;20.540;2024-01-15T13:35:55;4.38;53.01
67586;SHT31;55785;47.946;20.540;2024-01-15T13:38:21;4.41;53.24
67586;SHT31;55785;47.946;20.540;2024-01-15T13:40:46;4.41;53.88
67586;SHT31;55785;47.946;20.540;2024-01-15T13:43:11;4.48;53.94
67586;SHT31;55785;47.946;20.540;2024-01-15T13:45:37;4.46;53.80
67586;SHT31;55785;47.946;20.540;2024-01-15T13:48:03;4.34;54.28
67586;SHT31;55785;47.946;20.540;2024-01-15T13:50:29;4.24;54.70
67586;SHT31;55785;47.946;20.540;2024-01-15T13:52:54;4.24;54.57
67586;SHT31;55785;47.946;20.540;2024-01-15T13:55:19;4.11;54.73
67586;SHT31;55785;47.946;20.540;2024-01-15T13:57:45;4.12;54.91
67586;SHT31;55785;47.946;20.540;2024-01-15T14:00:11;4.12;55.02
67586;SHT31;55785;47.946;20.540;2024-01-15T14:02:37;4.07;55.34
67586;SHT31;55785;47.946;20.540;2024-01-15T14:05:02;3.94;55.56
67586;SHT31;55785;47.946;20.540;2024-01-15T14:07:28;3.84;55.47
67586;SHT31;55785;47.946;20.540;2024-01-15T14:09:53;3.83;55.94
67586;SHT31;55785;47.946;20.540;2024-01-15T14:12:18;3.87;56.09
67586;SHT31;55785;47.946;20.540;2024-01-15T14:14:44;3.83;56.35
67586;SHT31;55785;47.946;20.540;2024-01-15T14:17:09;3.74;56.70
67586;SHT31;55785;47.946;20.540;2024-01-15T14:19:34;3.62;57.12
67586;SHT31;55785;47.946;20.540;2024-01-15T14:22:00;3.55;57.32
67586;SHT31;55785;47.946;20.540;2024-01-15T14:24:25;3.46;57.62
67586;SHT31;55785;47.946;20.540;2024-01-15T14:26:50;3.33;57.97
67586;SHT31;55785;47.946;20.540;2024-01-15T14:29:16;3.26;58.29
67586;SHT31;55785;47.946;20.540;2024-01-15T14:31:41;3.15;58.40
67586;SHT31;55785;47.946;20.540;2024-01-15T14:34:06;3.04;58.88
67586;SHT31;55785;47.946;20.540;2024-01-15T14:36:32;2.97;59.18
67586;SHT31;55785;47.946;20.540;2024-01-15T14:38:57;2.90;59.26
67586;SHT31;55785;47.946;20.540;2024-01-15T14:41:22;2.84;59.48
67586;SHT31;55785;47.946;20.540;2024-01-15T14:43:48;2.77;59.71
67586;SHT31;55785;47.946;20.540;2024-01-15T14:46:13;2.70;59.87
67586;SHT31;55785;47.946;20.540;2024-01-15T14:48:38;2.57;60.45
67586;SHT31;55785;47.946;20.540;2024-01-15T14:51:04;2.51;60.76
67586;SHT31;55785;47.946;20.540;2024-01-15T14:53:29;2.46;60.89
67586;SHT31;55785;47.946;20.540;2024-01-15T14:55:54;2.40;61.21
67586;SHT31;55785;47.946;20.540;2024-01-15T14:58:20;2.32;61.25
67586;SHT31;55785;47.946;20.540;2024-01-15T15:00:45;2.23;61.57
67586;SHT31;55785;47.946;20.540;2024-01-15T15:03:11;2.12;61.91
67586;SHT31;55785;47.946;20.540;2024-01-15T15:05:36;2.09;62.06
67586;SHT31;55785;47.946;20.540;2024-01-15T15:08:01;1.98;62.49
67586;SHT31;55785;47.946;20.540;2024-01-15T15:10:27;1.91;62.47
67586;SHT31;55785;47.946;20.540;2024-01-15T15:12:52;1.84;62.41
67586;SHT31;55785;47.946;20.540;2024-01-15T15:15:17;1.86;62.66
67586;SHT31;55785;47.946;20.540;2024-01-15T15:17:43;1.77;62.86
67586;SHT31;55785;47.946;20.540;2024-01-15T15:20:08;1.72;62.87
67586;SHT31;55785;47.946;20.540;2024-01-15T15:22:34;1.70;63.05